Terminal Aerodrome Forecast
Issued by NWS Newport/Morehead City, NC

Home | Current Version | Previous Version | Text Only | Print | Product List | Glossary On
Versions: 1 2 3 4 5 6 7 8 9 10 11 12 13 14 15 16 17 18 19 20
234
FTUS42 KMHX 251817 AAA
TAFEWN
TAF AMD
KEWN 251817Z 2518/2618 18008KT P6SM VCSH BKN040
      TEMPO 2518/2519 VRB15G30KT 2SM TSRA SCT007 BKN015CB
     FM252200 22006KT P6SM BKN040
     FM260000 VRB04KT P6SM BKN025
     FM260400 VRB04KT P6SM BKN007
     FM260800 VRB04KT P6SM BKN010
     FM261400 28006KT P6SM SCT015=

USA.gov is the U.S. government's official web portal to all federal, state and local government web resources and services.